createdAt,value
2023-02-12T05:07:50.449Z,-78
2023-02-12T05:10:19.543Z,-79
2023-02-12T05:12:48.265Z,-78
2023-02-12T05:15:18.247Z,-79
2023-02-12T05:17:48.000Z,-78
2023-02-12T05:20:17.296Z,-81
2023-02-12T05:22:47.062Z,-82
2023-02-12T05:25:15.508Z,-82
2023-02-12T05:27:43.930Z,-82
2023-02-12T05:30:13.465Z,-82
2023-02-12T05:32:42.101Z,-82
2023-02-12T05:35:10.758Z,-82
2023-02-12T05:37:39.427Z,-82
2023-02-12T05:40:11.595Z,-82
2023-02-12T05:42:40.414Z,-82
2023-02-12T05:45:09.524Z,-82
2023-02-12T05:47:38.036Z,-82
2023-02-12T05:50:08.171Z,-82
2023-02-12T05:52:36.342Z,-82
2023-02-12T05:55:05.786Z,-82
2023-02-12T05:57:36.149Z,-82
2023-02-12T06:00:05.252Z,-82
2023-02-12T06:02:34.984Z,-82
2023-02-12T06:05:03.859Z,-82
2023-02-12T06:07:32.317Z,-81
2023-02-12T06:10:00.903Z,-83
2023-02-12T06:12:29.816Z,-83
2023-02-12T06:14:59.820Z,-82
2023-02-12T06:17:28.181Z,-83
2023-02-12T06:19:56.922Z,-83
2023-02-12T06:22:26.250Z,-83
2023-02-12T06:24:54.601Z,-82
2023-02-12T06:27:23.448Z,-82
2023-02-12T06:29:52.002Z,-82
2023-02-12T06:32:23.320Z,-82
2023-02-12T06:34:51.910Z,-82
2023-02-12T06:37:20.546Z,-81
2023-02-12T06:39:49.259Z,-82
2023-02-12T06:42:18.344Z,-82
2023-02-12T06:44:47.851Z,-81
2023-02-12T06:47:16.633Z,-81
2023-02-12T06:49:46.472Z,-81
2023-02-12T06:52:14.942Z,-82
2023-02-12T06:54:43.527Z,-81
2023-02-12T06:57:12.081Z,-82
2023-02-12T06:59:40.541Z,-82
2023-02-12T07:02:08.877Z,-83
2023-02-12T07:04:37.329Z,-83
2023-02-12T07:07:07.535Z,-81
2023-02-12T07:09:36.100Z,-84
2023-02-12T07:12:05.561Z,-83
2023-02-12T07:14:33.867Z,-82
2023-02-12T07:17:04.028Z,-81
2023-02-12T07:19:32.677Z,-82
2023-02-12T07:22:00.986Z,-84
2023-02-12T07:24:31.855Z,-83
2023-02-12T07:27:00.332Z,-83
2023-02-12T07:29:28.844Z,-83
2023-02-12T07:31:57.506Z,-84
2023-02-12T07:34:25.816Z,-84
2023-02-12T07:36:54.295Z,-83
2023-02-12T07:39:23.606Z,-83
2023-02-12T07:41:53.666Z,-83
2023-02-12T07:44:22.297Z,-83
2023-02-12T07:46:51.019Z,-83
2023-02-12T07:49:21.665Z,-83
2023-02-12T07:51:50.779Z,-83
2023-02-12T07:54:19.521Z,-83
2023-02-12T07:56:48.512Z,-84
2023-02-12T07:59:21.915Z,-83
2023-02-12T08:01:51.771Z,-84
2023-02-12T08:04:22.478Z,-84
2023-02-12T08:06:53.708Z,-84
2023-02-12T08:09:24.046Z,-83
2023-02-12T08:11:52.916Z,-85
2023-02-12T08:14:23.719Z,-84
2023-02-12T08:16:52.880Z,-84
2023-02-12T08:19:25.760Z,-83
2023-02-12T08:21:56.910Z,-84
2023-02-12T08:24:25.660Z,-85
2023-02-12T08:26:54.258Z,-84
2023-02-12T08:29:26.011Z,-82
2023-02-12T08:31:59.596Z,-83
2023-02-12T08:34:30.345Z,-83
2023-02-12T08:36:59.333Z,-84
2023-02-12T08:39:31.922Z,-84
2023-02-12T08:42:01.066Z,-83
2023-02-12T08:44:31.658Z,-84
2023-02-12T08:47:00.729Z,-83
2023-02-12T08:49:30.856Z,-82
2023-02-12T08:52:01.927Z,-83
2023-02-12T08:54:31.854Z,-85
2023-02-12T08:57:02.099Z,-85
2023-02-12T08:59:32.892Z,-84
2023-02-12T09:02:02.183Z,-85
2023-02-12T09:04:31.002Z,-84
2023-02-12T09:06:59.797Z,-84
2023-02-12T09:09:29.080Z,-84
2023-02-12T09:11:57.491Z,-84
2023-02-12T09:14:25.902Z,-84
2023-02-12T09:16:58.358Z,-85
2023-02-12T09:19:27.007Z,-85
2023-02-12T09:21:56.834Z,-84
2023-02-12T09:24:27.541Z,-83
2023-02-12T09:26:56.214Z,-85
2023-02-12T09:29:27.609Z,-85
2023-02-12T09:31:58.042Z,-85
2023-02-12T09:34:26.622Z,-85
2023-02-12T09:36:56.305Z,-85
2023-02-12T09:39:25.360Z,-85
2023-02-12T09:42:20.678Z,-85
2023-02-12T09:44:53.824Z,-85
2023-02-12T09:47:28.876Z,-85
2023-02-12T09:50:07.807Z,-85
2023-02-12T09:52:37.787Z,-84
2023-02-12T09:55:06.989Z,-84
2023-02-12T09:57:37.928Z,-84
2023-02-12T10:00:09.869Z,-83
2023-02-12T10:02:41.423Z,-85
2023-02-12T10:05:17.395Z,-85
2023-02-12T10:07:59.405Z,-85
2023-02-12T10:10:37.378Z,-86
2023-02-12T10:13:07.522Z,-85
2023-02-12T10:15:39.905Z,-85
2023-02-12T10:18:38.255Z,-85
2023-02-12T10:21:20.030Z,-84
2023-02-12T10:24:02.507Z,-86
2023-02-12T10:26:32.643Z,-85
2023-02-12T10:29:11.410Z,-85
2023-02-12T10:31:43.023Z,-83
2023-02-12T10:34:17.718Z,-85
2023-02-12T10:36:49.401Z,-86
2023-02-12T10:39:23.257Z,-85
2023-02-12T10:41:57.661Z,-84
2023-02-12T10:44:26.122Z,-86
2023-02-12T10:46:55.261Z,-86
2023-02-12T10:49:24.170Z,-86
2023-02-12T10:52:14.485Z,-86
2023-02-12T10:54:45.022Z,-86
2023-02-12T10:57:19.821Z,-85
2023-02-12T10:59:50.847Z,-85
2023-02-12T11:02:25.903Z,-86
2023-02-12T11:04:55.958Z,-86
2023-02-12T11:07:26.985Z,-85
2023-02-12T11:09:57.300Z,-86
2023-02-12T11:12:35.193Z,-86
2023-02-12T11:15:06.341Z,-86
2023-02-12T11:17:38.969Z,-85
2023-02-12T11:20:23.065Z,-85
2023-02-12T11:22:55.228Z,-84
2023-02-12T11:25:24.656Z,-85
2023-02-12T11:28:06.698Z,-85
2023-02-12T11:30:35.819Z,-85
2023-02-12T11:33:17.866Z,-86
2023-02-12T11:36:07.814Z,-86
2023-02-12T11:38:40.720Z,-86
2023-02-12T11:41:20.218Z,-84
2023-02-12T11:43:48.681Z,-85
2023-02-12T11:46:22.581Z,-86
2023-02-12T11:48:51.543Z,-84
2023-02-12T11:51:22.999Z,-84
2023-02-12T11:53:55.424Z,-86
2023-02-12T11:56:23.932Z,-84
2023-02-12T11:58:53.664Z,-85
2023-02-12T12:01:28.105Z,-86
2023-02-12T12:04:02.374Z,-84
2023-02-12T12:06:37.123Z,-85
2023-02-12T12:09:12.608Z,-87
2023-02-12T12:11:46.322Z,-86
2023-02-12T12:14:20.175Z,-86
2023-02-12T12:17:10.930Z,-86
2023-02-12T12:19:56.833Z,-86
2023-02-12T12:22:52.066Z,-87
2023-02-12T12:25:28.867Z,-85
2023-02-12T12:28:16.488Z,-86
2023-02-12T12:31:15.403Z,-86
2023-02-12T12:33:46.562Z,-86
2023-02-12T12:36:35.343Z,-87
2023-02-12T12:39:08.618Z,-87
2023-02-12T12:41:48.370Z,-87
2023-02-12T12:44:28.665Z,-87
2023-02-12T12:47:10.528Z,-87
2023-02-12T12:50:00.517Z,-86
2023-02-12T12:52:41.638Z,-86
2023-02-12T12:55:22.991Z,-85
2023-02-12T12:57:59.499Z,-85
2023-02-12T13:00:38.921Z,-85
2023-02-12T13:03:25.104Z,-85
2023-02-12T13:06:06.052Z,-85
2023-02-12T13:08:47.113Z,-84
2023-02-12T13:11:23.745Z,-83
2023-02-12T13:13:58.681Z,-84
2023-02-12T13:16:31.890Z,-85
2023-02-12T13:19:04.668Z,-85
2023-02-12T13:21:42.224Z,-85
2023-02-12T13:24:22.622Z,-85
2023-02-12T13:26:54.381Z,-84
2023-02-12T13:29:28.141Z,-84
2023-02-12T13:31:59.285Z,-85
2023-02-12T13:34:30.072Z,-84
2023-02-12T13:36:59.187Z,-84
2023-02-12T13:39:34.048Z,-85
2023-02-12T13:42:10.530Z,-85
2023-02-12T13:44:47.420Z,-85
2023-02-12T13:47:23.054Z,-84
2023-02-12T13:49:54.587Z,-85
2023-02-12T13:52:30.613Z,-84
2023-02-12T13:55:13.694Z,-85
2023-02-12T13:57:42.329Z,-85
2023-02-12T14:01:00.833Z,-85
2023-02-12T14:03:31.176Z,-85
2023-02-12T14:06:14.029Z,-85
2023-02-12T14:08:44.475Z,-85
2023-02-12T14:11:15.218Z,-84
2023-02-12T14:13:50.639Z,-85
2023-02-12T14:16:41.604Z,-85
2023-02-12T14:19:42.459Z,-85
2023-02-12T14:22:15.148Z,-84
2023-02-12T14:25:02.045Z,-85
2023-02-12T14:27:44.911Z,-85
2023-02-12T14:30:31.904Z,-84
2023-02-12T14:33:36.041Z,-85
2023-02-12T14:36:41.604Z,-85
2023-02-12T14:39:28.787Z,-85
2023-02-12T14:41:58.410Z,-85
2023-02-12T14:44:49.023Z,-85
2023-02-12T14:47:56.771Z,-83
2023-02-12T14:50:31.056Z,-85
2023-02-12T14:53:08.070Z,-85
2023-02-12T14:55:37.240Z,-84
2023-02-12T14:58:08.301Z,-84
2023-02-12T15:00:38.685Z,-84
2023-02-12T15:03:22.666Z,-83
2023-02-12T15:05:59.807Z,-85
2023-02-12T15:08:33.481Z,-84
2023-02-12T15:11:08.514Z,-84
2023-02-12T15:13:45.874Z,-85
2023-02-12T15:16:20.697Z,-86
2023-02-12T15:18:54.379Z,-85
2023-02-12T15:21:27.885Z,-86
2023-02-12T15:24:03.324Z,-85
2023-02-12T15:26:33.850Z,-86
2023-02-12T15:29:03.344Z,-86
2023-02-12T15:31:33.617Z,-86
2023-02-12T15:34:04.181Z,-86
2023-02-12T15:36:34.752Z,-85
2023-02-12T15:39:05.751Z,-85
2023-02-12T15:41:39.670Z,-84
2023-02-12T15:44:22.917Z,-84
2023-02-12T15:47:03.511Z,-83
2023-02-12T15:49:35.105Z,-82
2023-02-12T15:52:09.725Z,-84
2023-02-12T15:54:38.528Z,-84
2023-02-12T15:57:13.741Z,-83
2023-02-12T15:59:42.957Z,-85
2023-02-12T16:02:21.570Z,-84
2023-02-12T16:04:50.370Z,-84
2023-02-12T16:07:21.078Z,-83
2023-02-12T16:09:50.979Z,-84
2023-02-12T16:12:22.214Z,-85
2023-02-12T16:14:52.024Z,-85
2023-02-12T16:17:28.471Z,-83
2023-02-12T16:19:58.436Z,-86
2023-02-12T16:22:33.052Z,-86
2023-02-12T16:25:02.510Z,-86
2023-02-12T16:27:32.573Z,-86
2023-02-12T16:30:02.808Z,-84
2023-02-12T16:32:36.377Z,-85
2023-02-12T16:35:09.083Z,-85
2023-02-12T16:37:48.635Z,-86
2023-02-12T16:40:29.961Z,-84
2023-02-12T16:43:04.303Z,-85
2023-02-12T16:45:37.414Z,-85
2023-02-12T16:48:10.996Z,-84
2023-02-12T16:50:46.121Z,-85
2023-02-12T16:53:43.729Z,-85
2023-02-12T16:56:18.260Z,-84
2023-02-12T16:58:48.524Z,-86
2023-02-12T17:01:23.280Z,-86
2023-02-12T17:03:52.376Z,-85
2023-02-12T17:06:22.540Z,-83
2023-02-12T17:08:59.039Z,-85
2023-02-12T17:11:28.182Z,-85
2023-02-12T17:13:57.169Z,-83
2023-02-12T17:16:31.065Z,-83
2023-02-12T17:19:00.749Z,-85
2023-02-12T17:21:31.072Z,-84
2023-02-12T17:24:00.912Z,-84
2023-02-12T17:26:29.723Z,-85
2023-02-12T17:29:05.530Z,-85
2023-02-12T17:31:34.588Z,-84
2023-02-12T17:34:03.297Z,-84
2023-02-12T17:36:31.903Z,-85
2023-02-12T17:39:02.449Z,-84
2023-02-12T17:41:31.134Z,-83
2023-02-12T17:44:00.149Z,-85
2023-02-12T17:46:31.773Z,-84
2023-02-12T17:49:00.133Z,-84
2023-02-12T17:51:28.874Z,-83
2023-02-12T17:53:57.311Z,-84
2023-02-12T17:56:27.567Z,-84
2023-02-12T17:58:56.142Z,-84
2023-02-12T18:01:25.862Z,-84
2023-02-12T18:03:55.994Z,-84
2023-02-12T18:06:26.437Z,-84
2023-02-12T18:08:55.546Z,-84
2023-02-12T18:11:24.220Z,-84
2023-02-12T18:13:55.995Z,-85
2023-02-12T18:16:25.381Z,-86
2023-02-12T18:18:54.118Z,-85
2023-02-12T18:21:23.086Z,-85
2023-02-12T18:23:51.354Z,-85
2023-02-12T18:26:20.717Z,-84
2023-02-12T18:28:49.206Z,-85
2023-02-12T18:31:20.636Z,-83
2023-02-12T18:33:49.116Z,-84
2023-02-12T18:36:20.983Z,-83
2023-02-12T18:38:51.575Z,-84
2023-02-12T18:41:21.711Z,-83
2023-02-12T18:43:50.424Z,-82
2023-02-12T18:46:22.817Z,-86
2023-02-12T18:48:52.063Z,-84
2023-02-12T18:51:22.698Z,-83
2023-02-12T18:53:55.473Z,-84
2023-02-12T18:56:24.235Z,-84
2023-02-12T18:58:56.968Z,-83
2023-02-12T19:01:27.709Z,-83
2023-02-12T19:04:00.315Z,-83
2023-02-12T19:06:29.457Z,-82
2023-02-12T19:08:58.786Z,-82
2023-02-12T19:11:28.382Z,-84
2023-02-12T19:13:57.119Z,-85
2023-02-12T19:16:27.985Z,-84
2023-02-12T19:18:58.545Z,-84
2023-02-12T19:21:27.258Z,-84
2023-02-12T19:23:56.310Z,-85
2023-02-12T19:26:26.248Z,-85
2023-02-12T19:28:55.325Z,-85
2023-02-12T19:31:27.879Z,-84
2023-02-12T19:33:57.790Z,-85
2023-02-12T19:36:27.902Z,-84
2023-02-12T19:38:56.890Z,-85
2023-02-12T19:41:28.329Z,-84
2023-02-12T19:43:58.296Z,-85
2023-02-12T19:46:29.903Z,-84
2023-02-12T19:49:00.350Z,-86
2023-02-12T19:51:31.156Z,-86
2023-02-12T19:54:01.245Z,-85
2023-02-12T19:56:30.003Z,-84
2023-02-12T19:58:59.227Z,-86
2023-02-12T20:01:29.966Z,-84
2023-02-12T20:03:58.893Z,-85
2023-02-12T20:06:28.713Z,-85
2023-02-12T20:08:57.848Z,-84
2023-02-12T20:11:29.041Z,-82
2023-02-12T20:13:58.373Z,-83
2023-02-12T20:16:34.652Z,-83
2023-02-12T20:19:07.469Z,-81
2023-02-12T20:21:36.373Z,-83
2023-02-12T20:24:05.134Z,-83
2023-02-12T20:26:34.482Z,-84
2023-02-12T20:29:05.217Z,-83
2023-02-12T20:31:36.684Z,-84
2023-02-12T20:34:07.234Z,-85
2023-02-12T20:36:38.622Z,-84
2023-02-12T20:39:09.119Z,-83
2023-02-12T20:41:37.803Z,-83
2023-02-12T20:44:06.881Z,-83
2023-02-12T20:46:39.480Z,-83
2023-02-12T20:49:08.551Z,-83
2023-02-12T20:51:37.249Z,-83
2023-02-12T20:54:06.042Z,-82
2023-02-12T20:56:36.744Z,-83
2023-02-12T20:59:07.178Z,-84
2023-02-12T21:01:38.998Z,-84
2023-02-12T21:04:09.712Z,-84
2023-02-12T21:06:40.393Z,-83
2023-02-12T21:09:09.689Z,-83
2023-02-12T21:11:38.898Z,-84
2023-02-12T21:14:21.318Z,-85
2023-02-12T21:16:52.960Z,-85
2023-02-12T21:19:21.398Z,-85
2023-02-12T21:21:49.902Z,-85
2023-02-12T21:24:22.011Z,-86
2023-02-12T21:26:50.802Z,-85
2023-02-12T21:29:19.592Z,-85
2023-02-12T21:31:50.065Z,-85
2023-02-12T21:34:21.872Z,-85
2023-02-12T21:36:51.262Z,-85
2023-02-12T21:39:25.361Z,-84
2023-02-12T21:41:55.267Z,-86
2023-02-12T21:44:24.558Z,-85
2023-02-12T21:46:53.278Z,-85
2023-02-12T21:49:28.559Z,-85
2023-02-12T21:51:58.796Z,-86
2023-02-12T21:54:27.803Z,-86
2023-02-12T21:56:57.273Z,-85
2023-02-12T21:59:26.681Z,-86
2023-02-12T22:01:58.493Z,-86
2023-02-12T22:04:29.024Z,-86
2023-02-12T22:06:58.334Z,-86
2023-02-12T22:09:27.168Z,-86
2023-02-12T22:11:55.858Z,-85
2023-02-12T22:14:24.512Z,-85
2023-02-12T22:16:52.822Z,-86
2023-02-12T22:19:21.613Z,-85
2023-02-12T22:21:52.811Z,-85
2023-02-12T22:24:22.254Z,-85
2023-02-12T22:26:50.930Z,-85
2023-02-12T22:29:19.575Z,-85
2023-02-12T22:31:48.862Z,-84
2023-02-12T22:34:18.989Z,-85
2023-02-12T22:36:49.100Z,-86
2023-02-12T22:39:19.429Z,-86
2023-02-12T22:41:48.583Z,-85
2023-02-12T22:44:20.699Z,-84
2023-02-12T22:46:49.773Z,-85
